Time;durP1;ratioP1;P1;durP2;ratioP2;P2;SDS_P1;SDS_P2;PMS_P1;PMS_P2;Temp;Humidity;BMP_temperature;BMP_pressure;BME280_temperature;BME280_humidity;BME280_pressure;Samples;Min_cycle;Max_cycle;Signal;HPM_P1;HPM_P2
2023/08/30 00:01:38;;;;;;;12.52;3.45;;;;;;;;;;4946606;29;20031;-81
2023/08/30 00:04:12;;;;;;;11.95;3.53;;;;;;;;;;4928330;29;20778;-81
2023/08/30 00:06:44;;;;;;;7.85;3.30;;;;;;;;;;4948136;29;20386;-81
2023/08/30 00:09:16;;;;;;;15.15;4.07;;;;;;;;;;4945994;29;20050;-80
2023/08/30 00:11:45;;;;;;;12.13;3.83;;;;;;;;;;4957130;29;20043;-81
2023/08/30 00:14:22;;;;;;;16.08;4.38;;;;;;;;;;4931680;29;20487;-81
2023/08/30 00:16:53;;;;;;;8.27;3.22;;;;;;;;;;4946534;29;20043;-80
2023/08/30 00:19:25;;;;;;;9.82;3.45;;;;;;;;;;4946609;29;20387;-80
2023/08/30 00:21:54;;;;;;;11.20;3.40;;;;;;;;;;4925561;29;20043;-80
2023/08/30 00:24:25;;;;;;;9.75;3.28;;;;;;;;;;4946946;29;20035;-81
2023/08/30 00:27:00;;;;;;;9.95;3.53;;;;;;;;;;4945790;29;20042;-81
2023/08/30 00:29:34;;;;;;;8.63;3.50;;;;;;;;;;4948661;29;20363;-81
2023/08/30 00:32:07;;;;;;;13.52;3.88;;;;;;;;;;4929773;29;20047;-81
2023/08/30 00:34:38;;;;;;;13.57;3.97;;;;;;;;;;4913270;29;20054;-81
2023/08/30 00:37:10;;;;;;;9.38;4.15;;;;;;;;;;4944246;29;20362;-81
2023/08/30 00:39:42;;;;;;;7.53;3.33;;;;;;;;;;4950712;29;20525;-80
2023/08/30 00:42:14;;;;;;;8.85;3.05;;;;;;;;;;4938534;29;20058;-79
2023/08/30 00:44:47;;;;;;;8.65;3.60;;;;;;;;;;4938031;29;20058;-79
2023/08/30 00:47:23;;;;;;;9.57;3.65;;;;;;;;;;4937846;29;20047;-80
2023/08/30 00:49:54;;;;;;;10.65;3.40;;;;;;;;;;4923734;29;20058;-82
2023/08/30 00:52:25;;;;;;;;;;;;;;;;;;4950551;29;20039;-80
2023/08/30 00:54:56;;;;;;;9.27;3.40;;;;;;;;;;4947102;29;19918;-81
2023/08/30 00:57:31;;;;;;;13.15;4.07;;;;;;;;;;4951295;29;20031;-82
2023/08/30 01:00:06;;;;;;;9.55;4.10;;;;;;;;;;4939107;29;20604;-82
2023/08/30 01:02:37;;;;;;;17.77;5.15;;;;;;;;;;4933149;29;20051;-82
2023/08/30 01:05:09;;;;;;;12.02;3.47;;;;;;;;;;4962361;28;20043;-80
2023/08/30 01:07:46;;;;;;;11.82;4.13;;;;;;;;;;4943605;29;20479;-82
2023/08/30 01:10:25;;;;;;;12.15;4.00;;;;;;;;;;4905316;29;20048;-81
2023/08/30 01:13:06;;;;;;;10.65;4.15;;;;;;;;;;4936384;29;20062;-81
2023/08/30 01:15:39;;;;;;;12.50;3.78;;;;;;;;;;4943552;29;20047;-79
2023/08/30 01:18:13;;;;;;;10.45;3.88;;;;;;;;;;4944931;29;20040;-79
2023/08/30 01:20:46;;;;;;;12.48;3.83;;;;;;;;;;4948879;29;20050;-80
2023/08/30 01:23:35;;;;;;;11.48;3.85;;;;;;;;;;4945777;29;20035;-80
2023/08/30 01:26:06;;;;;;;13.35;3.83;;;;;;;;;;4944347;29;20051;-80
2023/08/30 01:28:39;;;;;;;10.15;3.92;;;;;;;;;;4925664;29;20044;-79
2023/08/30 01:31:15;;;;;;;13.77;4.25;;;;;;;;;;4929950;29;20043;-80
2023/08/30 01:33:46;;;;;;;25.02;4.85;;;;;;;;;;4940536;29;20067;-80
2023/08/30 01:36:17;;;;;;;10.07;3.88;;;;;;;;;;4918302;29;20047;-80
2023/08/30 01:38:48;;;;;;;10.40;3.78;;;;;;;;;;4936553;29;20043;-80
2023/08/30 01:41:23;;;;;;;15.27;4.57;;;;;;;;;;4920740;29;20058;-80
2023/08/30 01:43:55;;;;;;;12.32;4.53;;;;;;;;;;4921463;29;20047;-80
2023/08/30 01:46:26;;;;;;;12.63;4.20;;;;;;;;;;4945992;29;20054;-78
2023/08/30 01:48:57;;;;;;;9.90;4.57;;;;;;;;;;4956104;29;20043;-79
2023/08/30 01:51:30;;;;;;;9.93;3.83;;;;;;;;;;4952592;29;20032;-79
2023/08/30 01:54:04;;;;;;;10.52;3.55;;;;;;;;;;4947637;29;20053;-80
2023/08/30 01:56:35;;;;;;;25.60;4.57;;;;;;;;;;4918670;29;20054;-80
2023/08/30 01:59:11;;;;;;;10.98;3.70;;;;;;;;;;4919838;29;20051;-79
2023/08/30 02:01:43;;;;;;;8.77;3.83;;;;;;;;;;4921894;29;20402;-79
2023/08/30 02:04:14;;;;;;;9.95;4.18;;;;;;;;;;4936693;29;20372;-80
2023/08/30 02:07:08;;;;;;;19.85;3.67;;;;;;;;;;4937419;29;20506;-78
2023/08/30 02:10:12;;;;;;;14.75;4.00;;;;;;;;;;4938190;29;20043;-80
2023/08/30 02:12:49;;;;;;;12.07;3.63;;;;;;;;;;4954911;29;20387;-79
2023/08/30 02:15:21;;;;;;;8.63;3.65;;;;;;;;;;4936840;29;20521;-80
2023/08/30 02:17:53;;;;;;;9.90;3.55;;;;;;;;;;4954443;29;20501;-80
2023/08/30 02:20:27;;;;;;;10.80;3.53;;;;;;;;;;4936561;29;20043;-80
2023/08/30 02:22:59;;;;;;;16.42;4.18;;;;;;;;;;4937443;29;20394;-80
2023/08/30 02:25:43;;;;;;;9.85;3.58;;;;;;;;;;4936947;29;20047;-79
2023/08/30 02:28:14;;;;;;;10.13;3.70;;;;;;;;;;4935870;29;20386;-80
2023/08/30 02:30:47;;;;;;;9.75;3.42;;;;;;;;;;4936401;29;20406;-81
2023/08/30 02:33:18;;;;;;;12.82;4.20;;;;;;;;;;4936085;29;20402;-80
2023/08/30 02:35:53;;;;;;;14.43;4.25;;;;;;;;;;4954141;29;20043;-80
2023/08/30 02:38:24;;;;;;;8.25;3.67;;;;;;;;;;4920846;29;20051;-80
2023/08/30 02:40:57;;;;;;;11.32;3.58;;;;;;;;;;4954245;29;20048;-79
2023/08/30 02:43:28;;;;;;;10.15;3.97;;;;;;;;;;4953961;29;20397;-78
2023/08/30 02:46:03;;;;;;;14.98;4.30;;;;;;;;;;4956596;28;20044;-80
2023/08/30 02:48:34;;;;;;;11.43;4.20;;;;;;;;;;4958494;29;20054;-79
2023/08/30 02:51:06;;;;;;;19.08;4.25;;;;;;;;;;4958265;29;20040;-79
2023/08/30 02:53:37;;;;;;;9.70;3.80;;;;;;;;;;4958041;29;20047;-79
2023/08/30 02:56:13;;;;;;;10.50;4.28;;;;;;;;;;4957569;29;20042;-79
2023/08/30 02:58:42;;;;;;;10.65;3.78;;;;;;;;;;4941379;29;20047;-79
2023/08/30 03:01:14;;;;;;;11.95;4.05;;;;;;;;;;4957598;29;20058;-79
2023/08/30 03:03:47;;;;;;;13.95;3.83;;;;;;;;;;4939977;29;20043;-79
2023/08/30 03:06:19;;;;;;;8.85;3.72;;;;;;;;;;4940054;29;20525;-79
2023/08/30 03:08:50;;;;;;;13.75;4.18;;;;;;;;;;4939329;29;20047;-80
2023/08/30 03:11:23;;;;;;;15.02;4.15;;;;;;;;;;4940771;29;20047;-79
2023/08/30 03:13:56;;;;;;;13.18;4.13;;;;;;;;;;4939889;29;20055;-79
2023/08/30 03:16:28;;;;;;;11.32;4.20;;;;;;;;;;4957208;29;20046;-79
2023/08/30 03:19:00;;;;;;;11.25;4.00;;;;;;;;;;4941963;29;20039;-79
2023/08/30 03:21:34;;;;;;;9.82;4.25;;;;;;;;;;4939881;29;20054;-79
2023/08/30 03:24:06;;;;;;;12.20;4.28;;;;;;;;;;4931568;29;20423;-79
2023/08/30 03:26:36;;;;;;;13.40;4.13;;;;;;;;;;4920587;29;20052;-80
2023/08/30 03:29:07;;;;;;;15.85;4.80;;;;;;;;;;4922996;29;20391;-79
2023/08/30 03:31:38;;;;;;;10.05;4.45;;;;;;;;;;4956864;29;20058;-78
2023/08/30 03:34:10;;;;;;;11.52;5.10;;;;;;;;;;4957125;29;20058;-79
2023/08/30 03:36:43;;;;;;;11.77;4.78;;;;;;;;;;4940191;29;20047;-79
2023/08/30 03:39:15;;;;;;;15.77;5.35;;;;;;;;;;4939126;29;20058;-79
2023/08/30 03:41:47;;;;;;;14.73;4.53;;;;;;;;;;4938723;29;20402;-79
2023/08/30 03:44:21;;;;;;;13.70;5.07;;;;;;;;;;4938814;29;20395;-78
2023/08/30 03:46:55;;;;;;;13.98;4.85;;;;;;;;;;4957156;29;20451;-79
2023/08/30 03:49:27;;;;;;;11.10;5.00;;;;;;;;;;4938944;29;20059;-79
2023/08/30 03:51:58;;;;;;;14.50;5.28;;;;;;;;;;4939092;29;20483;-79
2023/08/30 03:54:33;;;;;;;12.20;4.65;;;;;;;;;;4938297;29;20074;-78
2023/08/30 03:57:05;;;;;;;12.43;5.22;;;;;;;;;;4939007;29;20055;-77
2023/08/30 03:59:35;;;;;;;14.40;4.47;;;;;;;;;;4956114;29;20055;-79
2023/08/30 04:02:06;;;;;;;15.38;5.18;;;;;;;;;;4956607;29;20410;-79
2023/08/30 04:04:39;;;;;;;11.52;5.00;;;;;;;;;;4938671;29;20080;-79
2023/08/30 04:07:11;;;;;;;13.52;5.43;;;;;;;;;;4929156;29;20050;-80
2023/08/30 04:09:42;;;;;;;16.25;4.85;;;;;;;;;;4937097;29;20047;-79
2023/08/30 04:12:13;;;;;;;12.65;5.07;;;;;;;;;;4957417;29;20044;-78
2023/08/30 04:14:43;;;;;;;10.30;4.20;;;;;;;;;;4939027;29;20050;-79
2023/08/30 04:17:15;;;;;;;11.60;4.70;;;;;;;;;;4957035;29;20054;-81
2023/08/30 04:19:45;;;;;;;14.73;5.68;;;;;;;;;;4950997;29;20051;-79
2023/08/30 04:22:17;;;;;;;13.15;4.97;;;;;;;;;;4921881;29;20044;-79
2023/08/30 04:24:50;;;;;;;13.75;5.22;;;;;;;;;;4920716;29;20055;-78
2023/08/30 04:27:20;;;;;;;11.60;5.22;;;;;;;;;;4920131;29;20054;-78
2023/08/30 04:29:52;;;;;;;14.73;5.15;;;;;;;;;;4904859;29;20483;-80
2023/08/30 04:32:23;;;;;;;;;;;;;;;;;;4920778;29;20047;-79
2023/08/30 04:34:53;;;;;;;11.25;5.18;;;;;;;;;;4937954;29;20358;-79
2023/08/30 04:37:24;;;;;;;12.13;4.55;;;;;;;;;;4938240;29;20051;-79
2023/08/30 04:39:53;;;;;;;12.52;5.18;;;;;;;;;;4904367;29;20051;-79
2023/08/30 04:42:24;;;;;;;17.90;5.65;;;;;;;;;;4919813;29;20048;-79
2023/08/30 04:45:00;;;;;;;11.43;4.88;;;;;;;;;;4921437;29;20047;-79
2023/08/30 04:47:34;;;;;;;11.50;4.97;;;;;;;;;;4920336;29;20047;-79
2023/08/30 04:50:06;;;;;;;10.80;4.80;;;;;;;;;;4919530;29;20055;-79
2023/08/30 04:52:39;;;;;;;15.27;5.32;;;;;;;;;;4919626;29;20156;-79
2023/08/30 04:55:12;;;;;;;12.57;5.05;;;;;;;;;;4919986;29;20063;-78
2023/08/30 04:57:47;;;;;;;15.57;5.53;;;;;;;;;;4937170;29;20051;-79
2023/08/30 05:00:19;;;;;;;20.10;5.25;;;;;;;;;;4919713;29;20055;-80
2023/08/30 05:02:49;;;;;;;21.60;5.38;;;;;;;;;;4919121;29;20044;-79
2023/08/30 05:05:22;;;;;;;14.55;5.05;;;;;;;;;;4919851;29;20055;-79
2023/08/30 05:07:58;;;;;;;11.40;4.95;;;;;;;;;;4919368;29;20048;-79
2023/08/30 05:10:30;;;;;;;15.85;4.68;;;;;;;;;;4919620;29;20051;-79
2023/08/30 05:13:00;;;;;;;13.23;5.50;;;;;;;;;;4937236;29;20042;-79
2023/08/30 05:15:34;;;;;;;11.88;5.30;;;;;;;;;;4919386;29;20467;-79
2023/08/30 05:18:05;;;;;;;13.35;5.32;;;;;;;;;;4919134;29;20048;-79
2023/08/30 05:20:36;;;;;;;14.60;5.25;;;;;;;;;;4904629;29;20056;-79
2023/08/30 05:23:06;;;;;;;11.48;5.22;;;;;;;;;;4937042;29;20367;-79
2023/08/30 05:25:36;;;;;;;11.55;5.40;;;;;;;;;;4903907;29;20055;-79
2023/08/30 05:28:07;;;;;;;13.60;5.80;;;;;;;;;;4936971;29;20467;-79
2023/08/30 05:30:42;;;;;;;18.80;5.40;;;;;;;;;;4919677;29;20387;-79
2023/08/30 05:33:26;;;;;;;11.20;6.10;;;;;;;;;;4918891;29;20538;-79
2023/08/30 05:36:16;;;;;;;11.30;4.88;;;;;;;;;;4936856;29;20407;-79
2023/08/30 05:39:12;;;;;;;11.15;4.95;;;;;;;;;;4929517;29;20491;-78
2023/08/30 05:41:51;;;;;;;10.73;4.82;;;;;;;;;;4918922;29;20391;-78
2023/08/30 05:44:24;;;;;;;14.30;4.68;;;;;;;;;;4937051;29;20044;-78
2023/08/30 05:46:56;;;;;;;10.95;5.35;;;;;;;;;;4920358;29;20039;-79
2023/08/30 05:49:27;;;;;;;14.23;5.32;;;;;;;;;;4919700;29;20055;-79
2023/08/30 05:51:59;;;;;;;12.73;5.45;;;;;;;;;;4918375;29;20059;-79
2023/08/30 05:54:31;;;;;;;15.60;5.13;;;;;;;;;;4919142;29;20479;-79
2023/08/30 05:57:04;;;;;;;11.18;5.10;;;;;;;;;;4919069;29;20047;-79
2023/08/30 05:59:38;;;;;;;13.75;5.50;;;;;;;;;;4919239;29;20066;-79
2023/08/30 06:02:12;;;;;;;10.93;5.50;;;;;;;;;;4936730;29;20043;-79
2023/08/30 06:04:42;;;;;;;11.32;5.50;;;;;;;;;;4936449;29;20047;-79
2023/08/30 06:07:15;;;;;;;11.25;5.47;;;;;;;;;;4936775;29;20475;-79
2023/08/30 06:09:50;;;;;;;10.85;5.22;;;;;;;;;;4936176;29;20039;-80
2023/08/30 06:12:25;;;;;;;12.07;5.85;;;;;;;;;;4936807;29;20051;-79
2023/08/30 06:14:55;;;;;;;16.90;6.30;;;;;;;;;;4935900;29;20043;-79
2023/08/30 06:17:29;;;;;;;16.63;6.30;;;;;;;;;;4936675;29;20047;-79
2023/08/30 06:20:02;;;;;;;16.60;6.40;;;;;;;;;;4919206;29;20050;-79
2023/08/30 06:22:33;;;;;;;12.55;5.35;;;;;;;;;;4936674;29;20062;-79
2023/08/30 06:25:04;;;;;;;10.75;5.15;;;;;;;;;;4935547;29;20056;-78
2023/08/30 06:27:44;;;;;;;14.93;6.03;;;;;;;;;;4939781;29;20488;-79
2023/08/30 06:30:14;;;;;;;11.82;5.38;;;;;;;;;;4958827;29;20475;-78
2023/08/30 06:32:44;;;;;;;12.63;5.18;;;;;;;;;;4957292;29;20043;-79
2023/08/30 06:35:15;;;;;;;16.52;6.15;;;;;;;;;;4957350;29;20059;-77
2023/08/30 06:37:48;;;;;;;12.52;5.50;;;;;;;;;;4977933;29;20045;-78
2023/08/30 06:40:20;;;;;;;12.63;5.43;;;;;;;;;;4973449;29;20051;-79
2023/08/30 06:42:51;;;;;;;12.70;5.30;;;;;;;;;;4955285;29;20050;-79
2023/08/30 06:45:20;;;;;;;12.73;6.00;;;;;;;;;;4937405;29;20114;-79
2023/08/30 06:47:52;;;;;;;14.70;5.10;;;;;;;;;;4955333;29;20382;-79
2023/08/30 06:50:25;;;;;;;11.63;5.22;;;;;;;;;;4955406;29;20050;-79
2023/08/30 06:53:00;;;;;;;12.63;5.00;;;;;;;;;;4937190;29;20241;-79
2023/08/30 06:55:30;;;;;;;11.93;5.53;;;;;;;;;;4954650;29;20042;-79
2023/08/30 06:58:00;;;;;;;17.77;5.63;;;;;;;;;;4937704;29;20051;-79
2023/08/30 07:00:31;;;;;;;13.32;6.25;;;;;;;;;;4934441;29;20101;-79
2023/08/30 07:03:05;;;;;;;14.52;5.10;;;;;;;;;;4935769;29;20407;-79
2023/08/30 07:05:37;;;;;;;12.50;5.68;;;;;;;;;;4935258;29;20046;-79
2023/08/30 07:08:10;;;;;;;11.82;5.43;;;;;;;;;;4918043;29;20040;-79
2023/08/30 07:10:40;;;;;;;13.55;5.03;;;;;;;;;;4919174;29;20141;-79
2023/08/30 07:13:11;;;;;;;13.55;5.03;;;;;;;;;;4917091;29;20047;-80
2023/08/30 07:15:46;;;;;;;16.05;6.75;;;;;;;;;;4935570;29;20048;-79
2023/08/30 07:18:20;;;;;;;13.73;5.53;;;;;;;;;;4935747;29;20043;-78
2023/08/30 07:20:51;;;;;;;14.85;6.05;;;;;;;;;;4917855;29;20048;-79
2023/08/30 07:23:21;;;;;;;12.10;5.25;;;;;;;;;;4934185;29;20047;-78
2023/08/30 07:25:53;;;;;;;11.98;5.18;;;;;;;;;;4935413;29;20042;-78
2023/08/30 07:28:25;;;;;;;12.68;5.50;;;;;;;;;;4917354;29;20110;-79
2023/08/30 07:31:05;;;;;;;9.70;4.93;;;;;;;;;;4919260;29;20039;-79
2023/08/30 07:33:39;;;;;;;14.32;5.53;;;;;;;;;;4938928;29;20044;-78
2023/08/30 07:36:12;;;;;;;12.27;5.90;;;;;;;;;;4938374;29;20055;-79
2023/08/30 07:38:43;;;;;;;12.82;5.10;;;;;;;;;;4938773;29;20044;-79
2023/08/30 07:41:13;;;;;;;13.88;5.55;;;;;;;;;;4920844;29;20047;-79
2023/08/30 07:43:43;;;;;;;17.35;5.80;;;;;;;;;;4938399;29;20048;-79
2023/08/30 07:46:13;;;;;;;13.65;5.75;;;;;;;;;;4939075;29;20051;-79
2023/08/30 07:48:46;;;;;;;17.90;5.50;;;;;;;;;;4920970;29;20044;-78
2023/08/30 07:51:18;;;;;;;14.65;5.55;;;;;;;;;;4922508;29;20040;-78
2023/08/30 07:53:48;;;;;;;14.82;5.40;;;;;;;;;;4938174;29;20040;-78
2023/08/30 07:56:18;;;;;;;13.65;5.13;;;;;;;;;;4938148;29;20051;-78
2023/08/30 07:58:49;;;;;;;11.52;5.38;;;;;;;;;;4938273;29;20043;-79
2023/08/30 08:01:20;;;;;;;12.18;5.00;;;;;;;;;;4954696;29;20040;-79
2023/08/30 08:03:51;;;;;;;11.80;5.53;;;;;;;;;;4957768;29;20385;-79
2023/08/30 08:06:35;;;;;;;19.00;5.97;;;;;;;;;;4957625;29;20051;-79
2023/08/30 08:09:07;;;;;;;15.98;5.18;;;;;;;;;;4957645;29;20043;-79
2023/08/30 08:11:43;;;;;;;11.07;5.43;;;;;;;;;;4957267;29;20386;-79
2023/08/30 08:14:14;;;;;;;13.40;5.40;;;;;;;;;;4957428;29;20047;-79
2023/08/30 08:16:45;;;;;;;14.48;5.45;;;;;;;;;;4934943;29;20526;-78
2023/08/30 08:19:16;;;;;;;13.95;5.60;;;;;;;;;;4937662;29;20048;-78
2023/08/30 08:21:47;;;;;;;14.63;5.60;;;;;;;;;;4920495;29;20043;-78
2023/08/30 08:24:17;;;;;;;13.85;5.55;;;;;;;;;;4920447;29;20411;-79
2023/08/30 08:26:47;;;;;;;12.48;5.18;;;;;;;;;;4937993;29;20055;-78
2023/08/30 08:29:20;;;;;;;11.05;5.40;;;;;;;;;;4937940;29;20047;-79
2023/08/30 08:31:51;;;;;;;12.43;5.82;;;;;;;;;;4937748;29;20043;-78
2023/08/30 08:34:23;;;;;;;12.25;5.10;;;;;;;;;;4921176;29;20046;-77
2023/08/30 08:36:53;;;;;;;11.73;6.03;;;;;;;;;;4938061;29;20043;-78
2023/08/30 08:39:24;;;;;;;10.38;5.30;;;;;;;;;;4937808;29;20055;-77
2023/08/30 08:41:59;;;;;;;11.85;5.57;;;;;;;;;;4919747;29;20047;-78
2023/08/30 08:44:35;;;;;;;12.82;5.55;;;;;;;;;;4937817;29;20143;-79
2023/08/30 08:47:08;;;;;;;16.35;6.45;;;;;;;;;;4937368;29;20043;-79
2023/08/30 08:49:45;;;;;;;13.40;6.07;;;;;;;;;;4937612;29;20048;-79
2023/08/30 08:52:19;;;;;;;11.65;5.50;;;;;;;;;;4920706;29;20044;-79
2023/08/30 08:55:02;;;;;;;14.75;6.38;;;;;;;;;;4937521;29;20479;-79
2023/08/30 08:57:32;;;;;;;12.02;5.28;;;;;;;;;;4937843;29;20044;-79
2023/08/30 09:00:08;;;;;;;12.40;6.28;;;;;;;;;;4936977;29;20052;-78
2023/08/30 09:02:42;;;;;;;11.02;5.13;;;;;;;;;;4937027;29;20039;-78
2023/08/30 09:05:14;;;;;;;11.75;5.45;;;;;;;;;;4919319;29;20055;-79
2023/08/30 09:07:45;;;;;;;14.20;6.13;;;;;;;;;;4937592;29;20055;-80
2023/08/30 09:10:21;;;;;;;12.07;5.20;;;;;;;;;;4919684;29;20458;-80
2023/08/30 09:12:53;;;;;;;11.85;5.88;;;;;;;;;;4920191;29;20051;-81
2023/08/30 09:15:38;;;;;;;13.02;6.25;;;;;;;;;;4920235;29;20071;-77
2023/08/30 09:18:18;;;;;;;15.73;6.15;;;;;;;;;;4936889;29;20383;-79
2023/08/30 09:20:53;;;;;;;15.52;6.60;;;;;;;;;;4919228;29;20070;-79
2023/08/30 09:23:25;;;;;;;12.43;5.45;;;;;;;;;;4919751;29;20526;-79
2023/08/30 09:25:58;;;;;;;11.90;6.07;;;;;;;;;;4936608;29;20391;-78
2023/08/30 09:28:29;;;;;;;12.68;6.30;;;;;;;;;;4936758;29;20052;-79
2023/08/30 09:31:03;;;;;;;15.38;6.00;;;;;;;;;;4936281;29;20040;-78
2023/08/30 09:33:59;;;;;;;13.15;5.90;;;;;;;;;;4936708;29;20392;-79
2023/08/30 09:36:39;;;;;;;14.38;6.22;;;;;;;;;;4919010;29;20487;-79
2023/08/30 09:39:10;;;;;;;10.85;5.50;;;;;;;;;;4936309;29;20039;-79
2023/08/30 09:41:46;;;;;;;14.85;5.90;;;;;;;;;;4936032;29;20383;-78
2023/08/30 09:44:21;;;;;;;12.85;6.32;;;;;;;;;;4919938;29;20039;-78
2023/08/30 09:46:54;;;;;;;13.73;6.00;;;;;;;;;;4942956;29;20046;-78
2023/08/30 09:49:26;;;;;;;12.75;5.70;;;;;;;;;;4955412;29;20043;-78
2023/08/30 09:52:06;;;;;;;15.00;5.68;;;;;;;;;;4946276;29;20047;-78
2023/08/30 09:54:41;;;;;;;16.27;5.55;;;;;;;;;;4940239;29;20031;-78
2023/08/30 09:57:12;;;;;;;13.63;6.00;;;;;;;;;;4945675;29;20046;-78
2023/08/30 09:59:43;;;;;;;11.48;5.53;;;;;;;;;;4930812;29;20497;-78
2023/08/30 10:02:18;;;;;;;14.32;5.47;;;;;;;;;;4938680;29;20406;-78
2023/08/30 10:04:50;;;;;;;11.85;5.85;;;;;;;;;;4955448;29;20031;-78
2023/08/30 10:07:22;;;;;;;10.65;5.50;;;;;;;;;;4938761;29;20477;-78
2023/08/30 10:09:53;;;;;;;14.82;5.88;;;;;;;;;;4948521;29;20039;-78
2023/08/30 10:12:39;;;;;;;;;;;;;;;;;;4949034;29;20059;-79
2023/08/30 10:15:16;;;;;;;19.25;6.03;;;;;;;;;;4922217;29;20270;-79
2023/08/30 10:17:54;;;;;;;12.35;5.60;;;;;;;;;;4953484;29;20069;-80
2023/08/30 10:20:28;;;;;;;;;;;;;;;;;;4954409;29;20050;-79
2023/08/30 10:23:03;;;;;;;14.10;5.80;;;;;;;;;;4954389;29;20320;-79
2023/08/30 10:25:43;;;;;;;13.80;5.95;;;;;;;;;;4936496;29;20047;-80
2023/08/30 10:28:22;;;;;;;21.23;6.15;;;;;;;;;;4929504;29;20398;-79
2023/08/30 10:30:53;;;;;;;17.13;5.97;;;;;;;;;;4934636;29;20047;-79
2023/08/30 10:33:28;;;;;;;13.65;5.72;;;;;;;;;;4935165;29;20502;-79
2023/08/30 10:36:07;;;;;;;16.55;6.30;;;;;;;;;;4917222;29;20047;-78
2023/08/30 10:38:48;;;;;;;14.90;5.78;;;;;;;;;;4935344;29;20066;-79
2023/08/30 10:41:26;;;;;;;17.90;6.57;;;;;;;;;;4902080;29;20062;-78
2023/08/30 10:44:07;;;;;;;21.40;6.43;;;;;;;;;;4936039;29;20070;-78
2023/08/30 10:46:40;;;;;;;21.25;7.25;;;;;;;;;;4940331;29;20040;-78
2023/08/30 10:49:14;;;;;;;23.45;6.80;;;;;;;;;;4938490;29;20044;-78
2023/08/30 10:51:45;;;;;;;17.38;7.07;;;;;;;;;;4945357;29;20036;-76
2023/08/30 10:54:17;;;;;;;27.13;7.90;;;;;;;;;;4956221;29;20043;-75
2023/08/30 10:56:51;;;;;;;17.55;6.90;;;;;;;;;;4957380;29;20031;-76
2023/08/30 10:59:29;;;;;;;15.38;7.15;;;;;;;;;;4922784;29;20384;-79
2023/08/30 11:02:03;;;;;;;;;;;;;;;;;;4935389;29;20040;-79
2023/08/30 11:04:41;;;;;;;21.15;6.93;;;;;;;;;;4934931;29;19919;-78
2023/08/30 11:07:12;;;;;;;12.63;6.32;;;;;;;;;;4941600;29;20060;-80
2023/08/30 11:09:44;;;;;;;14.43;6.10;;;;;;;;;;4940112;29;20380;-81
2023/08/30 11:12:18;;;;;;;19.08;6.70;;;;;;;;;;4959322;29;20039;-80
2023/08/30 11:14:53;;;;;;;13.90;7.30;;;;;;;;;;4959082;29;20047;-80
2023/08/30 11:17:28;;;;;;;14.43;7.40;;;;;;;;;;4940766;29;20352;-80
2023/08/30 11:20:10;;;;;;;17.60;8.27;;;;;;;;;;4938944;29;20047;-80
2023/08/30 11:22:47;;;;;;;15.98;8.00;;;;;;;;;;4958096;29;20043;-80
2023/08/30 11:25:19;;;;;;;15.18;7.65;;;;;;;;;;4941637;29;20058;-80
2023/08/30 11:28:05;;;;;;;22.25;8.38;;;;;;;;;;4959121;29;20051;-80
2023/08/30 11:30:40;;;;;;;19.88;9.00;;;;;;;;;;4955097;29;20040;-81
2023/08/30 11:33:10;;;;;;;19.13;9.15;;;;;;;;;;4932939;29;20039;-81
2023/08/30 11:36:29;;;;;;;17.23;8.75;;;;;;;;;;4948066;29;20110;-81
2023/08/30 11:39:05;;;;;;;19.27;9.40;;;;;;;;;;4940875;29;20402;-80
2023/08/30 11:41:39;;;;;;;21.15;9.90;;;;;;;;;;4958123;29;20043;-80
2023/08/30 11:44:09;;;;;;;;;;;;;;;;;;4940822;29;20466;-81
2023/08/30 11:46:42;;;;;;;13.80;7.90;;;;;;;;;;4951326;29;19919;-81
2023/08/30 11:49:15;;;;;;;21.88;8.05;;;;;;;;;;4929293;29;20043;-81
2023/08/30 11:51:47;;;;;;;18.73;8.85;;;;;;;;;;4946662;29;20038;-80
2023/08/30 11:54:18;;;;;;;23.35;8.80;;;;;;;;;;4945326;29;20050;-81
2023/08/30 11:56:50;;;;;;;20.48;9.05;;;;;;;;;;4946780;29;20039;-81
2023/08/30 11:59:24;;;;;;;18.70;8.40;;;;;;;;;;4943714;29;20372;-81
2023/08/30 12:01:56;;;;;;;18.73;8.25;;;;;;;;;;4931112;29;20058;-80
2023/08/30 12:04:26;;;;;;;22.63;7.72;;;;;;;;;;4948848;29;20043;-81
2023/08/30 12:06:56;;;;;;;29.73;10.88;;;;;;;;;;4946976;29;20039;-81
2023/08/30 12:09:32;;;;;;;21.42;9.40;;;;;;;;;;4928342;29;20043;-81
2023/08/30 12:12:11;;;;;;;28.45;11.98;;;;;;;;;;4944278;29;20100;-81
2023/08/30 12:14:41;;;;;;;21.05;9.35;;;;;;;;;;4949519;29;20042;-82
2023/08/30 12:17:13;;;;;;;14.32;6.53;;;;;;;;;;4945633;29;20046;-81
2023/08/30 12:19:45;;;;;;;20.50;7.85;;;;;;;;;;4947685;29;20040;-82
2023/08/30 12:22:16;;;;;;;15.13;6.00;;;;;;;;;;4950830;29;20039;-81
2023/08/30 12:24:47;;;;;;;14.50;5.65;;;;;;;;;;4937091;29;20048;-82
2023/08/30 12:27:28;;;;;;;14.57;5.00;;;;;;;;;;4939911;29;20359;-82
2023/08/30 12:30:03;;;;;;;13.55;6.85;;;;;;;;;;4946311;29;20051;-80
2023/08/30 12:32:35;;;;;;;13.05;5.55;;;;;;;;;;4931488;29;20043;-82
2023/08/30 12:35:05;;;;;;;16.45;7.57;;;;;;;;;;4923020;29;20103;-81
2023/08/30 12:42:08;;;;;;;10.75;4.88;;;;;;;;;;4943794;29;20043;-82
2023/08/30 12:44:45;;;;;;;9.55;4.60;;;;;;;;;;4941276;29;20066;-81
2023/08/30 12:47:15;;;;;;;22.15;9.77;;;;;;;;;;4956948;29;20094;-81
2023/08/30 12:49:46;;;;;;;8.20;4.13;;;;;;;;;;4951149;29;20039;-83
2023/08/30 12:52:17;;;;;;;8.43;4.20;;;;;;;;;;4942968;29;20043;-81
2023/08/30 12:59:13;;;;;;;8.88;4.65;;;;;;;;;;4843048;29;20611;-82
2023/08/30 13:01:44;;;;;;;21.40;13.10;;;;;;;;;;4909941;29;20058;-82
2023/08/30 14:09:37;;;;;;;6.45;3.15;;;;;;;;;;4937051;29;20522;-80
2023/08/30 14:12:10;;;;;;;8.20;4.20;;;;;;;;;;4935689;29;20039;-80
2023/08/30 14:14:42;;;;;;;7.72;3.08;;;;;;;;;;4916719;29;20054;-80
2023/08/30 14:17:13;;;;;;;5.78;2.85;;;;;;;;;;4917341;29;20047;-81
2023/08/30 14:19:46;;;;;;;6.97;2.85;;;;;;;;;;4935607;29;20047;-80
2023/08/30 14:22:19;;;;;;;5.18;2.80;;;;;;;;;;4919367;29;20516;-80
2023/08/30 14:24:50;;;;;;;7.82;2.92;;;;;;;;;;4935241;29;20384;-81
2023/08/30 14:27:40;;;;;;;8.52;2.70;;;;;;;;;;4935231;29;20047;-81
2023/08/30 14:30:37;;;;;;;4.43;2.38;;;;;;;;;;4935675;29;20051;-80
2023/08/30 14:34:17;;;;;;;8.75;3.13;;;;;;;;;;4877037;29;20060;-81
2023/08/30 14:37:58;;;;;;;6.40;2.83;;;;;;;;;;4865498;29;20480;-80
2023/08/30 14:42:03;;;;;;;5.60;2.83;;;;;;;;;;4867345;29;20389;-81
2023/08/30 14:45:10;;;;;;;;;;;;;;;;;;4823157;29;20417;-82
2023/08/30 14:48:08;;;;;;;6.70;3.10;;;;;;;;;;4822649;29;20475;-81
2023/08/30 14:50:41;;;;;;;6.45;2.60;;;;;;;;;;4807980;29;20074;-81
2023/08/30 14:53:11;;;;;;;5.47;2.85;;;;;;;;;;4821324;29;20058;-81
2023/08/30 14:55:47;;;;;;;10.00;4.10;;;;;;;;;;4804543;29;20440;-79
2023/08/30 14:58:19;;;;;;;7.88;5.47;;;;;;;;;;4805074;29;20047;-80
2023/08/30 15:13:06;;;;;;;7.55;2.92;;;;;;;;;;4859675;29;20148;-81
2023/08/30 15:15:36;;;;;;;5.40;2.90;;;;;;;;;;4882544;29;20053;-81
2023/08/30 15:22:21;;;;;;;5.30;2.63;;;;;;;;;;4932534;29;20385;-82
2023/08/30 15:25:15;;;;;;;5.57;2.63;;;;;;;;;;4940777;29;20049;-82
2023/08/30 15:27:46;;;;;;;5.65;2.95;;;;;;;;;;4917980;29;20052;-80
2023/08/30 15:30:18;;;;;;;;;;;;;;;;;;4936868;29;20052;-82
2023/08/30 15:32:51;;;;;;;5.60;2.83;;;;;;;;;;4920391;29;19930;-81
2023/08/30 15:35:24;;;;;;;5.45;2.65;;;;;;;;;;4936857;29;20043;-84
2023/08/30 15:37:58;;;;;;;6.93;3.15;;;;;;;;;;4932277;29;20055;-84
2023/08/30 15:40:29;;;;;;;4.88;2.83;;;;;;;;;;4938725;29;20035;-82
2023/08/30 15:42:59;;;;;;;8.27;3.55;;;;;;;;;;4956164;29;20047;-81
2023/08/30 15:45:32;;;;;;;7.03;3.33;;;;;;;;;;4956346;29;20047;-81
2023/08/30 15:48:04;;;;;;;8.80;3.25;;;;;;;;;;4956240;29;20047;-81
2023/08/30 15:50:38;;;;;;;8.55;3.20;;;;;;;;;;4955861;29;20475;-81
2023/08/30 15:53:09;;;;;;;7.85;3.85;;;;;;;;;;4940764;29;20070;-80
2023/08/30 15:55:44;;;;;;;5.75;2.85;;;;;;;;;;4959292;29;20043;-81
2023/08/30 15:58:16;;;;;;;6.30;3.05;;;;;;;;;;4958796;29;20382;-81
2023/08/30 16:00:48;;;;;;;7.72;3.17;;;;;;;;;;4952499;29;20043;-81
2023/08/30 16:03:40;;;;;;;6.13;3.17;;;;;;;;;;4938798;29;20054;-81
2023/08/30 16:06:14;;;;;;;7.05;3.03;;;;;;;;;;4948793;29;20386;-81
2023/08/30 16:09:35;;;;;;;7.72;2.92;;;;;;;;;;4929919;29;20470;-81
2023/08/30 16:12:34;;;;;;;8.85;3.50;;;;;;;;;;4915471;29;20044;-79
2023/08/30 16:15:16;;;;;;;7.35;2.45;;;;;;;;;;4908739;29;20048;-81
2023/08/30 16:18:12;;;;;;;5.88;3.08;;;;;;;;;;4938625;29;20051;-79
2023/08/30 16:20:58;;;;;;;4.85;2.70;;;;;;;;;;4943313;29;20055;-79
2023/08/30 16:23:32;;;;;;;5.68;2.88;;;;;;;;;;4954466;29;20036;-80
2023/08/30 16:26:53;;;;;;;7.40;2.63;;;;;;;;;;4947183;29;20035;-81
2023/08/30 16:33:38;;;;;;;9.05;3.72;;;;;;;;;;4833025;29;20049;-80
2023/08/30 16:36:30;;;;;;;5.93;2.92;;;;;;;;;;5125309;23;20058;-80
2023/08/30 16:39:25;;;;;;;;;;;;;;;;;;4922376;29;20040;-79
2023/08/30 16:41:57;;;;;;;5.78;2.42;;;;;;;;;;5112575;23;20699;-80
2023/08/30 16:44:27;;;;;;;6.18;3.03;;;;;;;;;;4980486;28;20043;-80
2023/08/30 16:49:47;;;;;;;4.15;2.25;;;;;;;;;;5274921;23;20527;-81
2023/08/30 16:52:18;;;;;;;;;;;;;;;;;;4942671;29;20050;-80
2023/08/30 16:54:47;;;;;;;4.93;2.40;;;;;;;;;;4925033;29;20363;-79
2023/08/30 17:01:11;;;;;;;5.70;2.30;;;;;;;;;;4940067;29;20039;-80
2023/08/30 17:03:42;;;;;;;4.95;2.92;;;;;;;;;;4938955;29;20051;-80